sensor_id;sensor_type;location;lat;lon;timestamp;temperature;humidity
17066;DHT22;23120;52.336;21.182;2023-08-12T00:02:01;13.70;90.60
17066;DHT22;23120;52.336;21.182;2023-08-12T00:04:28;13.70;91.20
17066;DHT22;23120;52.336;21.182;2023-08-12T00:06:55;13.70;91.00
17066;DHT22;23120;52.336;21.182;2023-08-12T00:09:22;13.60;91.10
17066;DHT22;23120;52.336;21.182;2023-08-12T00:11:50;13.60;91.20
17066;DHT22;23120;52.336;21.182;2023-08-12T00:14:16;13.60;91.30
17066;DHT22;23120;52.336;21.182;2023-08-12T00:16:43;13.60;91.30
17066;DHT22;23120;52.336;21.182;2023-08-12T00:19:10;13.50;91.50
17066;DHT22;23120;52.336;21.182;2023-08-12T00:21:37;13.50;91.60
17066;DHT22;23120;52.336;21.182;2023-08-12T00:24:04;13.50;91.60
17066;DHT22;23120;52.336;21.182;2023-08-12T00:26:31;13.40;91.50
17066;DHT22;23120;52.336;21.182;2023-08-12T00:29:00;13.40;91.50
17066;DHT22;23120;52.336;21.182;2023-08-12T00:31:26;13.40;91.70
17066;DHT22;23120;52.336;21.182;2023-08-12T00:33:54;13.30;91.90
17066;DHT22;23120;52.336;21.182;2023-08-12T00:36:21;13.30;92.00
17066;DHT22;23120;52.336;21.182;2023-08-12T00:38:48;13.30;92.00
17066;DHT22;23120;52.336;21.182;2023-08-12T00:41:15;13.30;92.00
17066;DHT22;23120;52.336;21.182;2023-08-12T00:43:42;13.20;91.90
17066;DHT22;23120;52.336;21.182;2023-08-12T00:46:10;13.20;92.20
17066;DHT22;23120;52.336;21.182;2023-08-12T00:48:37;13.20;92.30
17066;DHT22;23120;52.336;21.182;2023-08-12T00:51:04;13.20;92.30
17066;DHT22;23120;52.336;21.182;2023-08-12T00:53:31;13.10;92.40
17066;DHT22;23120;52.336;21.182;2023-08-12T00:55:58;13.10;92.50
17066;DHT22;23120;52.336;21.182;2023-08-12T00:58:25;13.10;92.50
17066;DHT22;23120;52.336;21.182;2023-08-12T01:00:52;13.10;92.50
17066;DHT22;23120;52.336;21.182;2023-08-12T01:03:20;13.00;92.60
17066;DHT22;23120;52.336;21.182;2023-08-12T01:05:48;13.00;92.70
17066;DHT22;23120;52.336;21.182;2023-08-12T01:08:14;12.90;93.00
17066;DHT22;23120;52.336;21.182;2023-08-12T01:10:47;12.90;93.00
17066;DHT22;23120;52.336;21.182;2023-08-12T01:13:23;12.90;92.60
17066;DHT22;23120;52.336;21.182;2023-08-12T01:15:53;12.90;92.70
17066;DHT22;23120;52.336;21.182;2023-08-12T01:18:24;12.90;93.10
17066;DHT22;23120;52.336;21.182;2023-08-12T01:20:53;12.80;93.00
17066;DHT22;23120;52.336;21.182;2023-08-12T01:23:21;12.80;93.00
17066;DHT22;23120;52.336;21.182;2023-08-12T01:25:48;12.80;93.10
17066;DHT22;23120;52.336;21.182;2023-08-12T01:28:15;12.80;93.60
17066;DHT22;23120;52.336;21.182;2023-08-12T01:30:47;12.80;93.30
17066;DHT22;23120;52.336;21.182;2023-08-12T01:33:30;12.80;93.30
17066;DHT22;23120;52.336;21.182;2023-08-12T01:36:05;12.80;93.30
17066;DHT22;23120;52.336;21.182;2023-08-12T01:38:38;12.60;93.20
17066;DHT22;23120;52.336;21.182;2023-08-12T01:41:09;12.60;93.40
17066;DHT22;23120;52.336;21.182;2023-08-12T01:43:37;12.60;93.50
17066;DHT22;23120;52.336;21.182;2023-08-12T01:46:04;12.60;93.50
17066;DHT22;23120;52.336;21.182;2023-08-12T01:48:31;12.50;93.10
17066;DHT22;23120;52.336;21.182;2023-08-12T01:50:58;12.50;93.30
17066;DHT22;23120;52.336;21.182;2023-08-12T01:53:25;12.50;93.20
17066;DHT22;23120;52.336;21.182;2023-08-12T01:55:53;12.50;93.10
17066;DHT22;23120;52.336;21.182;2023-08-12T01:58:20;12.50;93.40
17066;DHT22;23120;52.336;21.182;2023-08-12T02:00:47;12.40;93.40
17066;DHT22;23120;52.336;21.182;2023-08-12T02:03:13;12.40;93.40
17066;DHT22;23120;52.336;21.182;2023-08-12T02:05:40;12.40;93.70
17066;DHT22;23120;52.336;21.182;2023-08-12T02:08:07;12.40;93.40
17066;DHT22;23120;52.336;21.182;2023-08-12T02:10:34;12.40;93.70
17066;DHT22;23120;52.336;21.182;2023-08-12T02:13:03;12.40;93.70
17066;DHT22;23120;52.336;21.182;2023-08-12T02:15:30;12.40;93.80
17066;DHT22;23120;52.336;21.182;2023-08-12T02:17:58;12.30;94.00
17066;DHT22;23120;52.336;21.182;2023-08-12T02:20:25;12.30;94.10
17066;DHT22;23120;52.336;21.182;2023-08-12T02:22:52;12.20;94.40
17066;DHT22;23120;52.336;21.182;2023-08-12T02:25:19;12.10;94.10
17066;DHT22;23120;52.336;21.182;2023-08-12T02:27:46;12.10;94.30
17066;DHT22;23120;52.336;21.182;2023-08-12T02:30:14;12.10;94.50
17066;DHT22;23120;52.336;21.182;2023-08-12T02:32:41;12.10;94.40
17066;DHT22;23120;52.336;21.182;2023-08-12T02:35:09;12.10;94.60
17066;DHT22;23120;52.336;21.182;2023-08-12T02:37:36;12.10;94.40
17066;DHT22;23120;52.336;21.182;2023-08-12T02:40:04;12.10;94.50
17066;DHT22;23120;52.336;21.182;2023-08-12T02:42:31;12.00;94.60
17066;DHT22;23120;52.336;21.182;2023-08-12T02:44:58;12.00;94.60
17066;DHT22;23120;52.336;21.182;2023-08-12T02:47:27;12.00;94.70
17066;DHT22;23120;52.336;21.182;2023-08-12T02:49:54;11.90;95.00
17066;DHT22;23120;52.336;21.182;2023-08-12T02:52:21;11.90;95.10
17066;DHT22;23120;52.336;21.182;2023-08-12T02:54:49;11.90;94.90
17066;DHT22;23120;52.336;21.182;2023-08-12T02:57:16;11.90;94.70
17066;DHT22;23120;52.336;21.182;2023-08-12T02:59:42;11.90;94.80
17066;DHT22;23120;52.336;21.182;2023-08-12T03:02:09;11.90;94.60
17066;DHT22;23120;52.336;21.182;2023-08-12T03:04:37;11.80;94.90
17066;DHT22;23120;52.336;21.182;2023-08-12T03:07:04;11.80;95.20
17066;DHT22;23120;52.336;21.182;2023-08-12T03:09:32;11.70;95.30
17066;DHT22;23120;52.336;21.182;2023-08-12T03:11:58;11.70;95.10
17066;DHT22;23120;52.336;21.182;2023-08-12T03:14:28;11.70;95.30
17066;DHT22;23120;52.336;21.182;2023-08-12T03:16:57;11.70;95.40
17066;DHT22;23120;52.336;21.182;2023-08-12T03:19:25;11.70;95.40
17066;DHT22;23120;52.336;21.182;2023-08-12T03:21:54;11.60;95.60
17066;DHT22;23120;52.336;21.182;2023-08-12T03:24:22;11.60;95.50
17066;DHT22;23120;52.336;21.182;2023-08-12T03:26:49;11.60;95.80
17066;DHT22;23120;52.336;21.182;2023-08-12T03:29:16;11.60;95.60
17066;DHT22;23120;52.336;21.182;2023-08-12T03:31:43;11.50;95.60
17066;DHT22;23120;52.336;21.182;2023-08-12T03:34:10;11.60;95.60
17066;DHT22;23120;52.336;21.182;2023-08-12T03:36:39;11.60;95.60
17066;DHT22;23120;52.336;21.182;2023-08-12T03:39:08;11.50;95.60
17066;DHT22;23120;52.336;21.182;2023-08-12T03:41:35;11.50;95.70
17066;DHT22;23120;52.336;21.182;2023-08-12T03:55:33;11.60;95.50
17066;DHT22;23120;52.336;21.182;2023-08-12T03:58:00;11.60;95.90
17066;DHT22;23120;52.336;21.182;2023-08-12T04:00:29;11.60;95.90
17066;DHT22;23120;52.336;21.182;2023-08-12T04:02:59;11.60;96.00
17066;DHT22;23120;52.336;21.182;2023-08-12T04:05:26;11.50;96.10
17066;DHT22;23120;52.336;21.182;2023-08-12T04:07:52;11.50;96.00
17066;DHT22;23120;52.336;21.182;2023-08-12T04:10:19;11.60;95.90
17066;DHT22;23120;52.336;21.182;2023-08-12T04:12:47;11.60;96.00
17066;DHT22;23120;52.336;21.182;2023-08-12T04:15:14;11.60;96.00
17066;DHT22;23120;52.336;21.182;2023-08-12T04:17:41;11.60;96.00
17066;DHT22;23120;52.336;21.182;2023-08-12T04:20:09;11.60;96.20
17066;DHT22;23120;52.336;21.182;2023-08-12T04:22:36;11.60;96.10
17066;DHT22;23120;52.336;21.182;2023-08-12T04:25:04;11.60;96.10
17066;DHT22;23120;52.336;21.182;2023-08-12T04:27:31;11.70;96.20
17066;DHT22;23120;52.336;21.182;2023-08-12T04:30:01;11.70;96.10
17066;DHT22;23120;52.336;21.182;2023-08-12T04:32:30;11.70;96.00
17066;DHT22;23120;52.336;21.182;2023-08-12T04:34:57;11.70;95.90
17066;DHT22;23120;52.336;21.182;2023-08-12T04:37:24;11.70;95.70
17066;DHT22;23120;52.336;21.182;2023-08-12T04:39:52;11.70;95.70
17066;DHT22;23120;52.336;21.182;2023-08-12T04:42:19;11.70;95.80
17066;DHT22;23120;52.336;21.182;2023-08-12T04:44:46;11.80;95.90
17066;DHT22;23120;52.336;21.182;2023-08-12T04:47:15;11.80;95.90
17066;DHT22;23120;52.336;21.182;2023-08-12T04:49:42;11.80;96.00
17066;DHT22;23120;52.336;21.182;2023-08-12T04:52:08;11.80;96.10
17066;DHT22;23120;52.336;21.182;2023-08-12T04:54:36;11.90;96.00
17066;DHT22;23120;52.336;21.182;2023-08-12T04:57:03;11.80;96.10
17066;DHT22;23120;52.336;21.182;2023-08-12T04:59:31;11.80;96.10
17066;DHT22;23120;52.336;21.182;2023-08-12T05:01:58;11.90;96.30
17066;DHT22;23120;52.336;21.182;2023-08-12T05:04:28;12.00;96.30
17066;DHT22;23120;52.336;21.182;2023-08-12T05:06:56;11.90;96.20
17066;DHT22;23120;52.336;21.182;2023-08-12T05:09:23;11.90;96.30
17066;DHT22;23120;52.336;21.182;2023-08-12T05:11:50;12.00;96.40
17066;DHT22;23120;52.336;21.182;2023-08-12T05:14:17;12.00;96.60
17066;DHT22;23120;52.336;21.182;2023-08-12T05:16:44;12.10;96.80
17066;DHT22;23120;52.336;21.182;2023-08-12T05:19:11;12.10;97.10
17066;DHT22;23120;52.336;21.182;2023-08-12T05:21:39;12.20;97.20
17066;DHT22;23120;52.336;21.182;2023-08-12T05:24:07;12.30;97.60
17066;DHT22;23120;52.336;21.182;2023-08-12T05:26:34;12.60;97.40
17066;DHT22;23120;52.336;21.182;2023-08-12T05:29:01;12.70;97.00
17066;DHT22;23120;52.336;21.182;2023-08-12T05:31:28;12.70;97.00
17066;DHT22;23120;52.336;21.182;2023-08-12T05:33:54;12.70;97.20
17066;DHT22;23120;52.336;21.182;2023-08-12T05:36:21;12.80;97.20
17066;DHT22;23120;52.336;21.182;2023-08-12T05:38:49;12.90;97.40
17066;DHT22;23120;52.336;21.182;2023-08-12T05:41:16;12.90;97.30
17066;DHT22;23120;52.336;21.182;2023-08-12T05:43:43;12.90;97.40
17066;DHT22;23120;52.336;21.182;2023-08-12T05:46:10;13.00;97.50
17066;DHT22;23120;52.336;21.182;2023-08-12T05:48:37;13.00;97.40
17066;DHT22;23120;52.336;21.182;2023-08-12T05:51:04;13.10;97.30
17066;DHT22;23120;52.336;21.182;2023-08-12T05:53:31;13.20;97.30
17066;DHT22;23120;52.336;21.182;2023-08-12T05:56:00;13.30;97.30
17066;DHT22;23120;52.336;21.182;2023-08-12T05:58:27;13.40;97.50
17066;DHT22;23120;52.336;21.182;2023-08-12T06:00:54;13.50;97.50
17066;DHT22;23120;52.336;21.182;2023-08-12T06:03:20;13.50;97.60
17066;DHT22;23120;52.336;21.182;2023-08-12T06:05:47;13.70;97.80
17066;DHT22;23120;52.336;21.182;2023-08-12T06:08:14;13.80;97.80
17066;DHT22;23120;52.336;21.182;2023-08-12T06:10:41;13.90;97.70
17066;DHT22;23120;52.336;21.182;2023-08-12T06:13:09;14.10;97.80
17066;DHT22;23120;52.336;21.182;2023-08-12T06:15:36;14.30;97.90
17066;DHT22;23120;52.336;21.182;2023-08-12T06:18:03;14.40;97.80
17066;DHT22;23120;52.336;21.182;2023-08-12T06:20:30;14.60;97.80
17066;DHT22;23120;52.336;21.182;2023-08-12T06:22:57;14.70;97.70
17066;DHT22;23120;52.336;21.182;2023-08-12T06:25:24;14.90;97.80
17066;DHT22;23120;52.336;21.182;2023-08-12T06:27:51;15.00;97.50
17066;DHT22;23120;52.336;21.182;2023-08-12T06:30:19;15.20;97.40
17066;DHT22;23120;52.336;21.182;2023-08-12T06:32:46;15.30;97.40
17066;DHT22;23120;52.336;21.182;2023-08-12T06:35:13;15.50;97.20
17066;DHT22;23120;52.336;21.182;2023-08-12T06:37:39;15.60;97.20
17066;DHT22;23120;52.336;21.182;2023-08-12T06:40:08;15.80;97.30
17066;DHT22;23120;52.336;21.182;2023-08-12T06:42:34;15.90;97.50
17066;DHT22;23120;52.336;21.182;2023-08-12T06:45:02;16.10;97.50
17066;DHT22;23120;52.336;21.182;2023-08-12T06:47:31;16.30;97.70
17066;DHT22;23120;52.336;21.182;2023-08-12T06:49:57;16.40;98.00
17066;DHT22;23120;52.336;21.182;2023-08-12T06:52:24;16.60;98.10
17066;DHT22;23120;52.336;21.182;2023-08-12T06:54:51;16.80;98.10
17066;DHT22;23120;52.336;21.182;2023-08-12T06:57:18;17.00;98.30
17066;DHT22;23120;52.336;21.182;2023-08-12T06:59:44;17.20;98.40
17066;DHT22;23120;52.336;21.182;2023-08-12T07:02:12;17.50;98.20
17066;DHT22;23120;52.336;21.182;2023-08-12T07:04:40;17.70;98.30
17066;DHT22;23120;52.336;21.182;2023-08-12T07:07:07;18.00;98.00
17066;DHT22;23120;52.336;21.182;2023-08-12T07:09:33;18.20;97.40
17066;DHT22;23120;52.336;21.182;2023-08-12T07:12:00;18.40;96.80
17066;DHT22;23120;52.336;21.182;2023-08-12T07:14:27;18.60;97.20
17066;DHT22;23120;52.336;21.182;2023-08-12T07:16:54;18.80;96.80
17066;DHT22;23120;52.336;21.182;2023-08-12T07:19:21;19.00;96.40
17066;DHT22;23120;52.336;21.182;2023-08-12T07:21:50;19.20;96.10
17066;DHT22;23120;52.336;21.182;2023-08-12T07:24:17;19.40;95.70
17066;DHT22;23120;52.336;21.182;2023-08-12T07:26:44;19.60;95.60
17066;DHT22;23120;52.336;21.182;2023-08-12T07:29:11;19.80;95.60
17066;DHT22;23120;52.336;21.182;2023-08-12T07:31:38;20.00;95.00
17066;DHT22;23120;52.336;21.182;2023-08-12T07:34:04;20.20;93.50
17066;DHT22;23120;52.336;21.182;2023-08-12T07:36:32;20.30;92.80
17066;DHT22;23120;52.336;21.182;2023-08-12T07:39:00;20.50;92.80
17066;DHT22;23120;52.336;21.182;2023-08-12T07:41:28;20.60;92.60
17066;DHT22;23120;52.336;21.182;2023-08-12T07:43:55;20.70;91.20
17066;DHT22;23120;52.336;21.182;2023-08-12T07:46:21;20.80;91.50
17066;DHT22;23120;52.336;21.182;2023-08-12T07:48:48;20.90;91.00
17066;DHT22;23120;52.336;21.182;2023-08-12T07:51:15;21.10;91.30
17066;DHT22;23120;52.336;21.182;2023-08-12T07:53:42;21.30;91.40
17066;DHT22;23120;52.336;21.182;2023-08-12T07:56:10;21.50;90.60
17066;DHT22;23120;52.336;21.182;2023-08-12T07:58:37;21.60;90.40
17066;DHT22;23120;52.336;21.182;2023-08-12T08:01:04;21.80;89.80
17066;DHT22;23120;52.336;21.182;2023-08-12T08:03:31;22.00;84.20
17066;DHT22;23120;52.336;21.182;2023-08-12T08:05:58;22.20;84.60
17066;DHT22;23120;52.336;21.182;2023-08-12T08:08:25;22.40;82.20
17066;DHT22;23120;52.336;21.182;2023-08-12T08:10:52;22.60;80.30
17066;DHT22;23120;52.336;21.182;2023-08-12T08:13:20;22.80;83.10
17066;DHT22;23120;52.336;21.182;2023-08-12T08:15:47;22.90;82.70
17066;DHT22;23120;52.336;21.182;2023-08-12T08:18:14;23.00;85.40
17066;DHT22;23120;52.336;21.182;2023-08-12T08:20:41;23.10;79.90
17066;DHT22;23120;52.336;21.182;2023-08-12T08:23:08;23.30;81.30
17066;DHT22;23120;52.336;21.182;2023-08-12T08:25:35;23.40;82.00
17066;DHT22;23120;52.336;21.182;2023-08-12T08:28:02;23.60;81.30
17066;DHT22;23120;52.336;21.182;2023-08-12T08:30:30;23.60;81.60
17066;DHT22;23120;52.336;21.182;2023-08-12T08:32:57;23.70;82.30
17066;DHT22;23120;52.336;21.182;2023-08-12T08:35:24;23.90;82.20
17066;DHT22;23120;52.336;21.182;2023-08-12T08:37:51;23.90;80.60
17066;DHT22;23120;52.336;21.182;2023-08-12T08:40:18;24.00;81.10
17066;DHT22;23120;52.336;21.182;2023-08-12T08:42:47;24.20;81.50
17066;DHT22;23120;52.336;21.182;2023-08-12T08:45:17;24.30;81.60
17066;DHT22;23120;52.336;21.182;2023-08-12T08:47:47;24.40;79.30
17066;DHT22;23120;52.336;21.182;2023-08-12T08:50:14;24.60;78.00
17066;DHT22;23120;52.336;21.182;2023-08-12T08:52:41;24.80;79.70
17066;DHT22;23120;52.336;21.182;2023-08-12T08:55:09;24.90;79.90
17066;DHT22;23120;52.336;21.182;2023-08-12T08:57:37;24.90;79.70
17066;DHT22;23120;52.336;21.182;2023-08-12T09:00:06;25.00;79.60
17066;DHT22;23120;52.336;21.182;2023-08-12T09:02:35;25.10;77.70
17066;DHT22;23120;52.336;21.182;2023-08-12T09:05:05;25.30;72.00
17066;DHT22;23120;52.336;21.182;2023-08-12T09:07:32;25.50;71.00
17066;DHT22;23120;52.336;21.182;2023-08-12T09:10:05;25.40;72.70
17066;DHT22;23120;52.336;21.182;2023-08-12T09:12:32;25.30;69.30
17066;DHT22;23120;52.336;21.182;2023-08-12T09:14:59;25.50;65.50
17066;DHT22;23120;52.336;21.182;2023-08-12T09:17:25;25.60;72.00
17066;DHT22;23120;52.336;21.182;2023-08-12T09:19:52;25.70;71.10
17066;DHT22;23120;52.336;21.182;2023-08-12T09:22:21;25.80;71.60
17066;DHT22;23120;52.336;21.182;2023-08-12T09:24:50;25.90;73.50
17066;DHT22;23120;52.336;21.182;2023-08-12T09:27:17;26.10;72.90
17066;DHT22;23120;52.336;21.182;2023-08-12T09:29:44;26.00;71.60
17066;DHT22;23120;52.336;21.182;2023-08-12T09:32:12;26.00;72.40
17066;DHT22;23120;52.336;21.182;2023-08-12T09:34:46;26.20;68.80
17066;DHT22;23120;52.336;21.182;2023-08-12T09:37:13;26.30;68.20
17066;DHT22;23120;52.336;21.182;2023-08-12T09:39:42;26.20;64.50
17066;DHT22;23120;52.336;21.182;2023-08-12T09:42:09;26.30;66.00
17066;DHT22;23120;52.336;21.182;2023-08-12T09:44:36;26.50;65.10
17066;DHT22;23120;52.336;21.182;2023-08-12T09:47:03;26.50;65.60
17066;DHT22;23120;52.336;21.182;2023-08-12T09:49:30;26.50;67.30
17066;DHT22;23120;52.336;21.182;2023-08-12T09:51:57;26.70;66.90
17066;DHT22;23120;52.336;21.182;2023-08-12T09:54:26;26.70;67.90
17066;DHT22;23120;52.336;21.182;2023-08-12T09:56:58;26.80;66.40
17066;DHT22;23120;52.336;21.182;2023-08-12T09:59:29;27.00;63.20
17066;DHT22;23120;52.336;21.182;2023-08-12T10:01:57;27.20;60.70
17066;DHT22;23120;52.336;21.182;2023-08-12T10:04:28;27.40;64.00
17066;DHT22;23120;52.336;21.182;2023-08-12T10:06:55;27.30;64.30
17066;DHT22;23120;52.336;21.182;2023-08-12T10:09:22;27.30;63.90
17066;DHT22;23120;52.336;21.182;2023-08-12T10:11:52;27.50;59.50
17066;DHT22;23120;52.336;21.182;2023-08-12T10:14:21;27.50;59.80
17066;DHT22;23120;52.336;21.182;2023-08-12T10:16:49;27.60;60.60
17066;DHT22;23120;52.336;21.182;2023-08-12T10:19:17;27.80;59.90
17066;DHT22;23120;52.336;21.182;2023-08-12T10:21:47;28.00;59.90
17066;DHT22;23120;52.336;21.182;2023-08-12T10:24:16;28.10;58.90
17066;DHT22;23120;52.336;21.182;2023-08-12T10:26:43;28.30;62.50
17066;DHT22;23120;52.336;21.182;2023-08-12T10:29:11;28.30;63.90
17066;DHT22;23120;52.336;21.182;2023-08-12T10:31:39;28.30;61.50
17066;DHT22;23120;52.336;21.182;2023-08-12T10:34:18;28.40;56.10
17066;DHT22;23120;52.336;21.182;2023-08-12T10:36:45;28.60;56.60
17066;DHT22;23120;52.336;21.182;2023-08-12T10:39:13;28.60;57.40
17066;DHT22;23120;52.336;21.182;2023-08-12T10:41:50;28.50;60.50
17066;DHT22;23120;52.336;21.182;2023-08-12T10:44:19;28.30;59.30
17066;DHT22;23120;52.336;21.182;2023-08-12T10:46:52;28.40;60.50
17066;DHT22;23120;52.336;21.182;2023-08-12T10:49:20;28.30;57.60
17066;DHT22;23120;52.336;21.182;2023-08-12T10:51:49;28.30;59.20
17066;DHT22;23120;52.336;21.182;2023-08-12T10:54:18;28.50;59.00
17066;DHT22;23120;52.336;21.182;2023-08-12T10:57:06;28.60;57.80
17066;DHT22;23120;52.336;21.182;2023-08-12T10:59:53;28.70;57.90
17066;DHT22;23120;52.336;21.182;2023-08-12T11:02:27;28.90;59.90
17066;DHT22;23120;52.336;21.182;2023-08-12T11:04:56;28.80;55.60
17066;DHT22;23120;52.336;21.182;2023-08-12T11:07:31;28.60;56.10
17066;DHT22;23120;52.336;21.182;2023-08-12T11:10:00;28.80;53.90
17066;DHT22;23120;52.336;21.182;2023-08-12T11:12:30;28.80;55.60
17066;DHT22;23120;52.336;21.182;2023-08-12T11:15:01;28.90;56.30
17066;DHT22;23120;52.336;21.182;2023-08-12T11:17:32;29.10;56.40
17066;DHT22;23120;52.336;21.182;2023-08-12T11:20:01;29.30;52.50
17066;DHT22;23120;52.336;21.182;2023-08-12T11:22:30;29.20;55.60
17066;DHT22;23120;52.336;21.182;2023-08-12T11:24:57;29.30;57.30
17066;DHT22;23120;52.336;21.182;2023-08-12T11:27:24;29.50;56.70
17066;DHT22;23120;52.336;21.182;2023-08-12T11:29:51;29.40;56.60
17066;DHT22;23120;52.336;21.182;2023-08-12T11:32:18;29.40;58.50
17066;DHT22;23120;52.336;21.182;2023-08-12T11:34:47;29.50;59.70
17066;DHT22;23120;52.336;21.182;2023-08-12T11:37:14;29.50;55.00
17066;DHT22;23120;52.336;21.182;2023-08-12T11:39:41;29.60;57.80
17066;DHT22;23120;52.336;21.182;2023-08-12T11:42:08;29.70;57.30
17066;DHT22;23120;52.336;21.182;2023-08-12T11:44:36;29.60;57.00
17066;DHT22;23120;52.336;21.182;2023-08-12T11:47:02;29.50;54.90
17066;DHT22;23120;52.336;21.182;2023-08-12T11:49:29;29.60;55.90
17066;DHT22;23120;52.336;21.182;2023-08-12T11:51:57;29.40;52.70
17066;DHT22;23120;52.336;21.182;2023-08-12T11:54:24;29.20;54.80
17066;DHT22;23120;52.336;21.182;2023-08-12T11:56:52;29.30;55.00
17066;DHT22;23120;52.336;21.182;2023-08-12T11:59:21;29.40;55.30
17066;DHT22;23120;52.336;21.182;2023-08-12T12:01:49;29.50;54.30
17066;DHT22;23120;52.336;21.182;2023-08-12T12:04:15;29.50;55.00
17066;DHT22;23120;52.336;21.182;2023-08-12T12:06:46;29.70;56.50
17066;DHT22;23120;52.336;21.182;2023-08-12T12:09:16;29.60;55.80
17066;DHT22;23120;52.336;21.182;2023-08-12T12:11:45;29.50;54.20
17066;DHT22;23120;52.336;21.182;2023-08-12T12:14:12;29.40;54.90
17066;DHT22;23120;52.336;21.182;2023-08-12T12:16:40;29.50;55.30
17066;DHT22;23120;52.336;21.182;2023-08-12T12:19:14;29.70;55.30
17066;DHT22;23120;52.336;21.182;2023-08-12T12:21:42;29.60;52.40
17066;DHT22;23120;52.336;21.182;2023-08-12T12:24:11;29.50;52.70
17066;DHT22;23120;52.336;21.182;2023-08-12T12:26:39;29.60;54.20
17066;DHT22;23120;52.336;21.182;2023-08-12T12:29:07;29.70;54.30
17066;DHT22;23120;52.336;21.182;2023-08-12T12:31:37;29.80;55.20
17066;DHT22;23120;52.336;21.182;2023-08-12T12:34:04;30.00;56.40
17066;DHT22;23120;52.336;21.182;2023-08-12T12:36:31;29.80;54.10
17066;DHT22;23120;52.336;21.182;2023-08-12T12:38:58;29.90;53.60
17066;DHT22;23120;52.336;21.182;2023-08-12T12:41:25;30.00;55.00
17066;DHT22;23120;52.336;21.182;2023-08-12T12:43:53;30.00;55.00
17066;DHT22;23120;52.336;21.182;2023-08-12T12:46:20;30.20;54.20
17066;DHT22;23120;52.336;21.182;2023-08-12T12:48:47;30.30;53.20
17066;DHT22;23120;52.336;21.182;2023-08-12T12:51:14;30.30;53.80
17066;DHT22;23120;52.336;21.182;2023-08-12T12:53:41;30.50;54.90
17066;DHT22;23120;52.336;21.182;2023-08-12T12:56:08;30.60;54.30
17066;DHT22;23120;52.336;21.182;2023-08-12T12:58:37;30.80;57.10
17066;DHT22;23120;52.336;21.182;2023-08-12T13:01:05;31.00;55.80
17066;DHT22;23120;52.336;21.182;2023-08-12T13:03:32;31.10;57.80
17066;DHT22;23120;52.336;21.182;2023-08-12T13:05:59;31.30;55.60
17066;DHT22;23120;52.336;21.182;2023-08-12T13:08:28;31.40;55.10
17066;DHT22;23120;52.336;21.182;2023-08-12T13:10:55;31.40;54.10
17066;DHT22;23120;52.336;21.182;2023-08-12T13:13:22;31.60;54.70
17066;DHT22;23120;52.336;21.182;2023-08-12T13:15:48;31.70;54.60
17066;DHT22;23120;52.336;21.182;2023-08-12T13:18:17;31.80;53.30
17066;DHT22;23120;52.336;21.182;2023-08-12T13:20:44;31.80;51.80
17066;DHT22;23120;52.336;21.182;2023-08-12T13:23:13;31.70;50.10
17066;DHT22;23120;52.336;21.182;2023-08-12T13:25:40;31.80;50.90
17066;DHT22;23120;52.336;21.182;2023-08-12T13:28:07;31.90;52.00
17066;DHT22;23120;52.336;21.182;2023-08-12T13:30:34;32.10;52.50
17066;DHT22;23120;52.336;21.182;2023-08-12T13:33:02;32.20;52.70
17066;DHT22;23120;52.336;21.182;2023-08-12T13:35:30;32.40;52.90
17066;DHT22;23120;52.336;21.182;2023-08-12T13:37:57;32.50;54.00
17066;DHT22;23120;52.336;21.182;2023-08-12T13:40:24;32.70;54.10
17066;DHT22;23120;52.336;21.182;2023-08-12T13:42:51;32.80;54.10
17066;DHT22;23120;52.336;21.182;2023-08-12T13:45:18;33.00;52.70
17066;DHT22;23120;52.336;21.182;2023-08-12T13:47:44;33.10;52.60
17066;DHT22;23120;52.336;21.182;2023-08-12T13:50:11;33.20;53.30
17066;DHT22;23120;52.336;21.182;2023-08-12T13:52:40;33.30;50.70
17066;DHT22;23120;52.336;21.182;2023-08-12T13:55:07;33.40;52.20
17066;DHT22;23120;52.336;21.182;2023-08-12T13:57:35;33.50;52.70
17066;DHT22;23120;52.336;21.182;2023-08-12T14:00:02;33.70;52.10
17066;DHT22;23120;52.336;21.182;2023-08-12T14:02:38;33.90;53.80
17066;DHT22;23120;52.336;21.182;2023-08-12T14:05:05;34.00;52.10
17066;DHT22;23120;52.336;21.182;2023-08-12T14:07:32;34.00;50.70
17066;DHT22;23120;52.336;21.182;2023-08-12T14:10:00;33.60;48.90
17066;DHT22;23120;52.336;21.182;2023-08-12T14:12:27;33.90;51.00
17066;DHT22;23120;52.336;21.182;2023-08-12T14:14:54;34.00;49.10
17066;DHT22;23120;52.336;21.182;2023-08-12T14:17:21;34.00;48.10
17066;DHT22;23120;52.336;21.182;2023-08-12T14:19:49;34.10;47.50
17066;DHT22;23120;52.336;21.182;2023-08-12T14:22:17;34.00;47.30
17066;DHT22;23120;52.336;21.182;2023-08-12T14:24:44;34.10;48.20
17066;DHT22;23120;52.336;21.182;2023-08-12T14:27:12;34.30;48.40
17066;DHT22;23120;52.336;21.182;2023-08-12T14:29:39;34.50;48.20
17066;DHT22;23120;52.336;21.182;2023-08-12T14:32:06;34.60;48.90
17066;DHT22;23120;52.336;21.182;2023-08-12T14:34:32;34.70;48.20
17066;DHT22;23120;52.336;21.182;2023-08-12T14:36:59;34.80;48.70
17066;DHT22;23120;52.336;21.182;2023-08-12T14:39:26;34.90;49.60
17066;DHT22;23120;52.336;21.182;2023-08-12T14:41:53;35.00;48.00
17066;DHT22;23120;52.336;21.182;2023-08-12T14:44:21;35.10;47.30
17066;DHT22;23120;52.336;21.182;2023-08-12T14:46:48;35.10;46.90
17066;DHT22;23120;52.336;21.182;2023-08-12T14:49:15;35.20;47.00
17066;DHT22;23120;52.336;21.182;2023-08-12T14:51:42;35.30;47.80
17066;DHT22;23120;52.336;21.182;2023-08-12T14:54:09;35.40;46.90
17066;DHT22;23120;52.336;21.182;2023-08-12T14:56:35;35.40;46.60
17066;DHT22;23120;52.336;21.182;2023-08-12T14:59:02;35.60;47.00
17066;DHT22;23120;52.336;21.182;2023-08-12T15:01:31;35.80;47.80
17066;DHT22;23120;52.336;21.182;2023-08-12T15:03:58;35.70;46.60
17066;DHT22;23120;52.336;21.182;2023-08-12T15:06:24;35.90;47.40
17066;DHT22;23120;52.336;21.182;2023-08-12T15:08:51;35.90;46.90
17066;DHT22;23120;52.336;21.182;2023-08-12T15:11:18;36.00;47.60
17066;DHT22;23120;52.336;21.182;2023-08-12T15:13:45;36.00;47.00
17066;DHT22;23120;52.336;21.182;2023-08-12T15:16:12;36.20;46.60
17066;DHT22;23120;52.336;21.182;2023-08-12T15:18:40;36.30;47.50
17066;DHT22;23120;52.336;21.182;2023-08-12T15:21:08;36.50;48.30
17066;DHT22;23120;52.336;21.182;2023-08-12T15:23:35;36.60;47.40
17066;DHT22;23120;52.336;21.182;2023-08-12T15:26:02;36.60;47.50
17066;DHT22;23120;52.336;21.182;2023-08-12T15:28:29;36.70;47.70
17066;DHT22;23120;52.336;21.182;2023-08-12T15:30:56;36.80;48.10